Schedule Details


Flight Number: CTN4439
Departure: Munich International Airport (EDDM) at 10:15
Arrival: Split / Kastela (LDSP) at 11:45
Route: ROTAX L603 LATLO DCT NIPEL DCT SABAD L862 OKLAX

Weather Information
EDDM 192120Z 12001KT 4500 1500N R08L/0150N R08R/0350V0900D PRFG NSC 08/07 Q1015 BECMG 0800 FG VV001
LDSP 192100Z AUTO 00000KT CAVOK 15/14 Q1018
Schedule Frequency

Route Map